sensor_id;sensor_type;location;lat;lon;timestamp;P1;durP1;ratioP1;P2;durP2;ratioP2
64018;SDS011;66942;52.138;5.216;2023-04-24T00:00:07;1.7;;;0.9;;
64018;SDS011;66942;52.138;5.216;2023-04-24T00:01:45;2.5;;;0.8;;
64018;SDS011;66942;52.138;5.216;2023-04-24T00:04:58;1.0;;;0.5;;
64018;SDS011;66942;52.138;5.216;2023-04-24T00:06:34;1.3;;;0.8;;
64018;SDS011;66942;52.138;5.216;2023-04-24T00:08:11;1.4;;;0.6;;
64018;SDS011;66942;52.138;5.216;2023-04-24T00:11:25;1.5;;;1.0;;
64018;SDS011;66942;52.138;5.216;2023-04-24T00:13:02;1.2;;;1.0;;
64018;SDS011;66942;52.138;5.216;2023-04-24T00:14:38;1.8;;;1.6;;
64018;SDS011;66942;52.138;5.216;2023-04-24T00:16:14;1.7;;;1.6;;
64018;SDS011;66942;52.138;5.216;2023-04-24T00:19:26;1.8;;;1.7;;
64018;SDS011;66942;52.138;5.216;2023-04-24T00:21:04;1.6;;;1.3;;
64018;SDS011;66942;52.138;5.216;2023-04-24T00:22:41;1.5;;;1.2;;
64018;SDS011;66942;52.138;5.216;2023-04-24T00:25:54;1.2;;;0.7;;
64018;SDS011;66942;52.138;5.216;2023-04-24T00:27:30;1.11;;;0.6;;
64018;SDS011;66942;52.138;5.216;2023-04-24T00:29:07;1.0;;;0.6;;
64018;SDS011;66942;52.138;5.216;2023-04-24T00:30:44;1.4;;;0.7;;
64018;SDS011;66942;52.138;5.216;2023-04-24T00:33:57;1.3;;;0.8;;
64018;SDS011;66942;52.138;5.216;2023-04-24T00:35:34;1.3;;;0.8;;
64018;SDS011;66942;52.138;5.216;2023-04-24T00:37:10;0.9;;;0.9;;
64018;SDS011;66942;52.138;5.216;2023-04-24T00:40:22;1.2;;;0.7;;
64018;SDS011;66942;52.138;5.216;2023-04-24T00:41:58;1.2;;;0.6;;
64018;SDS011;66942;52.138;5.216;2023-04-24T00:43:36;1.9;;;0.7;;
64018;SDS011;66942;52.138;5.216;2023-04-24T00:46:49;0.9;;;0.8;;
64018;SDS011;66942;52.138;5.216;2023-04-24T00:48:26;1.4;;;0.7;;
64018;SDS011;66942;52.138;5.216;2023-04-24T00:50:03;0.7;;;0.6;;
64018;SDS011;66942;52.138;5.216;2023-04-24T00:51:42;1.6;;;1.4;;
64018;SDS011;66942;52.138;5.216;2023-04-24T00:54:55;1.11;;;1.0;;
64018;SDS011;66942;52.138;5.216;2023-04-24T00:56:32;1.8;;;1.2;;
64018;SDS011;66942;52.138;5.216;2023-04-24T00:58:10;1.4;;;1.3;;
64018;SDS011;66942;52.138;5.216;2023-04-24T01:01:23;1.4;;;1.0;;
64018;SDS011;66942;52.138;5.216;2023-04-24T01:03:00;1.0;;;0.9;;
64018;SDS011;66942;52.138;5.216;2023-04-24T01:04:40;1.11;;;0.9;;
64018;SDS011;66942;52.138;5.216;2023-04-24T01:06:18;1.3;;;1.2;;
64018;SDS011;66942;52.138;5.216;2023-04-24T01:09:33;2.4;;;1.5;;
64018;SDS011;66942;52.138;5.216;2023-04-24T01:11:11;1.3;;;1.2;;
64018;SDS011;66942;52.138;5.216;2023-04-24T01:12:47;1.5;;;1.4;;
64018;SDS011;66942;52.138;5.216;2023-04-24T01:16:00;1.6;;;1.5;;
64018;SDS011;66942;52.138;5.216;2023-04-24T01:17:39;1.5;;;1.4;;
64018;SDS011;66942;52.138;5.216;2023-04-24T01:19:15;1.7;;;1.6;;
64018;SDS011;66942;52.138;5.216;2023-04-24T01:22:39;2.4;;;2.21;;
64018;SDS011;66942;52.138;5.216;2023-04-24T01:24:16;2.8;;;2.6;;
64018;SDS011;66942;52.138;5.216;2023-04-24T01:25:53;2.9;;;2.8;;
64018;SDS011;66942;52.138;5.216;2023-04-24T01:27:31;4.0;;;3.7;;
64018;SDS011;66942;52.138;5.216;2023-04-24T01:30:45;3.3;;;3.1;;
64018;SDS011;66942;52.138;5.216;2023-04-24T01:32:22;3.3;;;3.1;;
64018;SDS011;66942;52.138;5.216;2023-04-24T01:33:59;4.41;;;4.2;;
64018;SDS011;66942;52.138;5.216;2023-04-24T01:35:35;4.3;;;4.1;;
64018;SDS011;66942;52.138;5.216;2023-04-24T01:38:50;5.11;;;4.8;;
64018;SDS011;66942;52.138;5.216;2023-04-24T01:40:27;5.2;;;4.91;;
64018;SDS011;66942;52.138;5.216;2023-04-24T01:42:04;5.11;;;4.91;;
64018;SDS011;66942;52.138;5.216;2023-04-24T01:45:18;6.0;;;5.7;;
64018;SDS011;66942;52.138;5.216;2023-04-24T01:46:55;6.0;;;5.7;;
64018;SDS011;66942;52.138;5.216;2023-04-24T01:48:31;5.8;;;5.5;;
64018;SDS011;66942;52.138;5.216;2023-04-24T01:51:47;6.1;;;5.8;;
64018;SDS011;66942;52.138;5.216;2023-04-24T01:53:24;5.9;;;5.6;;
64018;SDS011;66942;52.138;5.216;2023-04-24T01:55:01;5.9;;;5.6;;
64018;SDS011;66942;52.138;5.216;2023-04-24T01:56:40;6.1;;;5.7;;
64018;SDS011;66942;52.138;5.216;2023-04-24T01:59:56;6.6;;;6.3;;
64018;SDS011;66942;52.138;5.216;2023-04-24T02:01:33;6.4;;;6.1;;
64018;SDS011;66942;52.138;5.216;2023-04-24T02:03:11;6.5;;;6.2;;
64018;SDS011;66942;52.138;5.216;2023-04-24T02:06:23;6.4;;;6.1;;
64018;SDS011;66942;52.138;5.216;2023-04-24T02:07:59;7.2;;;6.8;;
64018;SDS011;66942;52.138;5.216;2023-04-24T02:09:36;6.9;;;6.5;;
64018;SDS011;66942;52.138;5.216;2023-04-24T02:11:13;7.7;;;7.3;;
64018;SDS011;66942;52.138;5.216;2023-04-24T02:14:26;7.5;;;7.1;;
64018;SDS011;66942;52.138;5.216;2023-04-24T02:16:02;6.6;;;6.3;;
64018;SDS011;66942;52.138;5.216;2023-04-24T02:17:38;6.4;;;6.0;;
64018;SDS011;66942;52.138;5.216;2023-04-24T02:20:51;6.9;;;6.6;;
64018;SDS011;66942;52.138;5.216;2023-04-24T02:22:29;6.9;;;6.6;;
64018;SDS011;66942;52.138;5.216;2023-04-24T02:24:05;6.1;;;5.8;;
64018;SDS011;66942;52.138;5.216;2023-04-24T02:27:18;6.8;;;6.4;;
64018;SDS011;66942;52.138;5.216;2023-04-24T02:28:55;6.9;;;6.5;;
64018;SDS011;66942;52.138;5.216;2023-04-24T02:30:31;6.8;;;6.5;;
64018;SDS011;66942;52.138;5.216;2023-04-24T02:32:09;6.4;;;6.1;;
64018;SDS011;66942;52.138;5.216;2023-04-24T02:35:21;6.4;;;6.1;;
64018;SDS011;66942;52.138;5.216;2023-04-24T02:36:58;5.9;;;5.6;;
64018;SDS011;66942;52.138;5.216;2023-04-24T02:38:35;5.9;;;5.6;;
64018;SDS011;66942;52.138;5.216;2023-04-24T02:41:48;5.8;;;5.4;;
64018;SDS011;66942;52.138;5.216;2023-04-24T02:43:24;4.2;;;4.0;;
64018;SDS011;66942;52.138;5.216;2023-04-24T02:45:02;3.4;;;3.1;;
64018;SDS011;66942;52.138;5.216;2023-04-24T02:48:16;3.6;;;3.4;;
64018;SDS011;66942;52.138;5.216;2023-04-24T02:49:52;3.3;;;3.0;;
64018;SDS011;66942;52.138;5.216;2023-04-24T02:51:28;2.8;;;2.6;;
64018;SDS011;66942;52.138;5.216;2023-04-24T02:53:05;2.8;;;2.6;;
64018;SDS011;66942;52.138;5.216;2023-04-24T02:56:19;1.9;;;1.8;;
64018;SDS011;66942;52.138;5.216;2023-04-24T02:57:56;3.2;;;2.0;;
64018;SDS011;66942;52.138;5.216;2023-04-24T02:59:32;2.1;;;2.0;;
64018;SDS011;66942;52.138;5.216;2023-04-24T03:02:45;1.7;;;1.6;;
64018;SDS011;66942;52.138;5.216;2023-04-24T03:04:22;1.6;;;1.5;;
64018;SDS011;66942;52.138;5.216;2023-04-24T03:05:59;1.7;;;1.6;;
64018;SDS011;66942;52.138;5.216;2023-04-24T03:09:12;1.8;;;1.5;;
64018;SDS011;66942;52.138;5.216;2023-04-24T03:10:49;1.7;;;1.4;;
64018;SDS011;66942;52.138;5.216;2023-04-24T03:12:26;1.5;;;1.4;;
64018;SDS011;66942;52.138;5.216;2023-04-24T03:14:02;1.6;;;1.5;;
64018;SDS011;66942;52.138;5.216;2023-04-24T03:17:16;1.7;;;1.6;;
64018;SDS011;66942;52.138;5.216;2023-04-24T03:18:53;2.21;;;2.1;;
64018;SDS011;66942;52.138;5.216;2023-04-24T03:20:30;2.21;;;2.0;;
64018;SDS011;66942;52.138;5.216;2023-04-24T03:23:44;2.21;;;2.0;;
64018;SDS011;66942;52.138;5.216;2023-04-24T03:25:20;2.31;;;2.1;;
64018;SDS011;66942;52.138;5.216;2023-04-24T03:26:57;2.21;;;2.1;;
64018;SDS011;66942;52.138;5.216;2023-04-24T03:28:34;2.4;;;2.21;;
64018;SDS011;66942;52.138;5.216;2023-04-24T03:31:49;2.31;;;2.21;;
64018;SDS011;66942;52.138;5.216;2023-04-24T03:33:25;2.4;;;2.21;;
64018;SDS011;66942;52.138;5.216;2023-04-24T03:35:02;2.4;;;2.21;;
64018;SDS011;66942;52.138;5.216;2023-04-24T03:38:15;2.31;;;2.1;;
64018;SDS011;66942;52.138;5.216;2023-04-24T03:39:51;1.7;;;1.6;;
64018;SDS011;66942;52.138;5.216;2023-04-24T03:41:29;1.8;;;1.7;;
64018;SDS011;66942;52.138;5.216;2023-04-24T03:44:41;1.7;;;1.6;;
64018;SDS011;66942;52.138;5.216;2023-04-24T03:46:18;1.5;;;1.4;;
64018;SDS011;66942;52.138;5.216;2023-04-24T03:47:55;1.8;;;1.4;;
64018;SDS011;66942;52.138;5.216;2023-04-24T03:49:32;1.2;;;1.11;;
64018;SDS011;66942;52.138;5.216;2023-04-24T03:52:45;1.2;;;0.9;;
64018;SDS011;66942;52.138;5.216;2023-04-24T03:54:23;1.6;;;1.11;;
64018;SDS011;66942;52.138;5.216;2023-04-24T03:55:59;1.7;;;1.6;;
64018;SDS011;66942;52.138;5.216;2023-04-24T03:59:12;2.1;;;1.5;;
64018;SDS011;66942;52.138;5.216;2023-04-24T04:00:48;1.8;;;1.7;;
64018;SDS011;66942;52.138;5.216;2023-04-24T04:02:25;2.6;;;2.4;;
64018;SDS011;66942;52.138;5.216;2023-04-24T04:05:37;2.4;;;2.31;;
64018;SDS011;66942;52.138;5.216;2023-04-24T04:07:15;2.6;;;2.4;;
64018;SDS011;66942;52.138;5.216;2023-04-24T04:08:52;2.4;;;2.31;;
64018;SDS011;66942;52.138;5.216;2023-04-24T04:10:29;2.21;;;2.0;;
64018;SDS011;66942;52.138;5.216;2023-04-24T04:13:43;3.2;;;2.7;;
64018;SDS011;66942;52.138;5.216;2023-04-24T04:15:20;3.1;;;2.9;;
64018;SDS011;66942;52.138;5.216;2023-04-24T04:16:57;3.1;;;2.9;;
64018;SDS011;66942;52.138;5.216;2023-04-24T04:20:11;2.6;;;2.4;;
64018;SDS011;66942;52.138;5.216;2023-04-24T04:21:47;2.5;;;2.4;;
64018;SDS011;66942;52.138;5.216;2023-04-24T04:23:23;3.2;;;2.9;;
64018;SDS011;66942;52.138;5.216;2023-04-24T04:26:37;3.7;;;3.4;;
64018;SDS011;66942;52.138;5.216;2023-04-24T04:28:14;3.2;;;3.0;;
64018;SDS011;66942;52.138;5.216;2023-04-24T04:29:51;4.0;;;3.7;;
64018;SDS011;66942;52.138;5.216;2023-04-24T04:31:27;4.2;;;3.9;;
64018;SDS011;66942;52.138;5.216;2023-04-24T04:34:39;4.7;;;4.41;;
64018;SDS011;66942;52.138;5.216;2023-04-24T04:36:15;4.2;;;3.9;;
64018;SDS011;66942;52.138;5.216;2023-04-24T04:37:51;4.1;;;3.9;;
64018;SDS011;66942;52.138;5.216;2023-04-24T04:41:04;4.61;;;4.3;;
64018;SDS011;66942;52.138;5.216;2023-04-24T04:42:40;6.1;;;5.7;;
64018;SDS011;66942;52.138;5.216;2023-04-24T04:44:16;5.8;;;5.5;;
64018;SDS011;66942;52.138;5.216;2023-04-24T04:47:28;6.3;;;5.9;;
64018;SDS011;66942;52.138;5.216;2023-04-24T04:49:04;6.2;;;5.8;;
64018;SDS011;66942;52.138;5.216;2023-04-24T04:50:40;6.5;;;6.0;;
64018;SDS011;66942;52.138;5.216;2023-04-24T04:52:16;7.2;;;6.8;;
64018;SDS011;66942;52.138;5.216;2023-04-24T04:55:30;6.8;;;6.3;;
64018;SDS011;66942;52.138;5.216;2023-04-24T04:57:06;7.0;;;6.6;;
64018;SDS011;66942;52.138;5.216;2023-04-24T04:58:42;6.6;;;6.2;;
64018;SDS011;66942;52.138;5.216;2023-04-24T05:01:55;7.0;;;6.5;;
64018;SDS011;66942;52.138;5.216;2023-04-24T05:03:31;7.3;;;6.9;;
64018;SDS011;66942;52.138;5.216;2023-04-24T05:05:07;7.5;;;7.1;;
64018;SDS011;66942;52.138;5.216;2023-04-24T05:08:20;7.7;;;7.3;;
64018;SDS011;66942;52.138;5.216;2023-04-24T05:09:57;8.4;;;7.9;;
64018;SDS011;66942;52.138;5.216;2023-04-24T05:11:33;8.81;;;8.1;;
64018;SDS011;66942;52.138;5.216;2023-04-24T05:13:09;7.5;;;7.1;;
64018;SDS011;66942;52.138;5.216;2023-04-24T05:16:21;7.2;;;6.7;;
64018;SDS011;66942;52.138;5.216;2023-04-24T05:17:57;7.6;;;7.2;;
64018;SDS011;66942;52.138;5.216;2023-04-24T05:19:34;8.2;;;7.6;;
64018;SDS011;66942;52.138;5.216;2023-04-24T05:22:46;7.2;;;6.7;;
64018;SDS011;66942;52.138;5.216;2023-04-24T05:24:23;6.5;;;6.1;;
64018;SDS011;66942;52.138;5.216;2023-04-24T05:25:59;6.9;;;6.5;;
64018;SDS011;66942;52.138;5.216;2023-04-24T05:29:12;6.3;;;5.8;;
64018;SDS011;66942;52.138;5.216;2023-04-24T05:30:48;5.4;;;5.0;;
64018;SDS011;66942;52.138;5.216;2023-04-24T05:32:24;5.11;;;4.8;;
64018;SDS011;66942;52.138;5.216;2023-04-24T05:35:36;4.2;;;3.9;;
64018;SDS011;66942;52.138;5.216;2023-04-24T05:37:13;4.41;;;4.0;;
64018;SDS011;66942;52.138;5.216;2023-04-24T05:38:49;3.3;;;3.1;;
64018;SDS011;66942;52.138;5.216;2023-04-24T05:40:25;2.4;;;2.21;;
64018;SDS011;66942;52.138;5.216;2023-04-24T05:43:38;1.7;;;1.6;;
64018;SDS011;66942;52.138;5.216;2023-04-24T05:45:14;1.8;;;1.5;;
64018;SDS011;66942;52.138;5.216;2023-04-24T05:46:50;2.6;;;1.6;;
64018;SDS011;66942;52.138;5.216;2023-04-24T05:50:03;2.7;;;2.6;;
64018;SDS011;66942;52.138;5.216;2023-04-24T05:51:41;2.1;;;1.6;;
64018;SDS011;66942;52.138;5.216;2023-04-24T05:53:17;2.0;;;1.0;;
64018;SDS011;66942;52.138;5.216;2023-04-24T05:56:29;1.11;;;1.0;;
64018;SDS011;66942;52.138;5.216;2023-04-24T05:58:06;0.8;;;0.6;;
64018;SDS011;66942;52.138;5.216;2023-04-24T05:59:42;1.3;;;0.9;;
64018;SDS011;66942;52.138;5.216;2023-04-24T06:01:18;1.6;;;0.6;;
64018;SDS011;66942;52.138;5.216;2023-04-24T06:04:31;1.5;;;0.8;;
64018;SDS011;66942;52.138;5.216;2023-04-24T06:06:08;2.1;;;0.8;;
64018;SDS011;66942;52.138;5.216;2023-04-24T06:07:44;1.3;;;0.7;;
64018;SDS011;66942;52.138;5.216;2023-04-24T06:10:56;1.11;;;0.7;;
64018;SDS011;66942;52.138;5.216;2023-04-24T06:12:32;2.31;;;0.9;;
64018;SDS011;66942;52.138;5.216;2023-04-24T06:14:09;2.1;;;0.9;;
64018;SDS011;66942;52.138;5.216;2023-04-24T06:17:21;2.4;;;2.21;;
64018;SDS011;66942;52.138;5.216;2023-04-24T06:18:57;2.1;;;1.9;;
64018;SDS011;66942;52.138;5.216;2023-04-24T06:20:33;3.1;;;2.5;;
64018;SDS011;66942;52.138;5.216;2023-04-24T06:23:45;2.9;;;2.7;;
64018;SDS011;66942;52.138;5.216;2023-04-24T06:25:21;4.0;;;3.7;;
64018;SDS011;66942;52.138;5.216;2023-04-24T06:27:01;5.7;;;5.3;;
64018;SDS011;66942;52.138;5.216;2023-04-24T06:28:37;5.5;;;5.2;;
64018;SDS011;66942;52.138;5.216;2023-04-24T06:31:50;7.3;;;6.6;;
64018;SDS011;66942;52.138;5.216;2023-04-24T06:33:26;9.6;;;8.71;;
64018;SDS011;66942;52.138;5.216;2023-04-24T06:35:02;11.4;;;10.6;;
64018;SDS011;66942;52.138;5.216;2023-04-24T06:38:15;10.8;;;10.0;;
64018;SDS011;66942;52.138;5.216;2023-04-24T06:39:52;11.9;;;11.0;;
64018;SDS011;66942;52.138;5.216;2023-04-24T06:41:28;12.2;;;11.4;;
64018;SDS011;66942;52.138;5.216;2023-04-24T06:44:40;14.0;;;12.9;;
64018;SDS011;66942;52.138;5.216;2023-04-24T06:46:16;14.4;;;13.2;;
64018;SDS011;66942;52.138;5.216;2023-04-24T06:47:52;14.7;;;13.4;;
64018;SDS011;66942;52.138;5.216;2023-04-24T06:49:28;17.5;;;15.9;;
64018;SDS011;66942;52.138;5.216;2023-04-24T06:52:41;17.61;;;16.0;;
64018;SDS011;66942;52.138;5.216;2023-04-24T06:54:17;17.41;;;15.8;;
64018;SDS011;66942;52.138;5.216;2023-04-24T06:55:53;16.7;;;15.2;;
64018;SDS011;66942;52.138;5.216;2023-04-24T06:59:06;17.8;;;16.11;;
64018;SDS011;66942;52.138;5.216;2023-04-24T07:00:42;17.7;;;15.8;;
64018;SDS011;66942;52.138;5.216;2023-04-24T07:02:18;19.8;;;16.2;;
64018;SDS011;66942;52.138;5.216;2023-04-24T07:05:31;17.3;;;15.6;;
64018;SDS011;66942;52.138;5.216;2023-04-24T07:07:07;15.2;;;13.7;;
64018;SDS011;66942;52.138;5.216;2023-04-24T07:08:43;16.61;;;14.9;;
64018;SDS011;66942;52.138;5.216;2023-04-24T07:10:19;17.3;;;14.8;;
64018;SDS011;66942;52.138;5.216;2023-04-24T07:13:31;15.2;;;13.1;;
64018;SDS011;66942;52.138;5.216;2023-04-24T07:15:08;16.3;;;14.2;;
64018;SDS011;66942;52.138;5.216;2023-04-24T07:16:45;18.7;;;14.6;;
64018;SDS011;66942;52.138;5.216;2023-04-24T07:19:58;15.3;;;13.7;;
64018;SDS011;66942;52.138;5.216;2023-04-24T07:21:34;16.7;;;14.9;;
64018;SDS011;66942;52.138;5.216;2023-04-24T07:23:10;16.3;;;13.7;;
64018;SDS011;66942;52.138;5.216;2023-04-24T07:26:22;16.8;;;14.8;;
64018;SDS011;66942;52.138;5.216;2023-04-24T07:27:59;17.11;;;15.1;;
64018;SDS011;66942;52.138;5.216;2023-04-24T07:29:35;16.3;;;14.0;;
64018;SDS011;66942;52.138;5.216;2023-04-24T07:32:49;17.11;;;13.4;;
64018;SDS011;66942;52.138;5.216;2023-04-24T07:34:25;16.11;;;14.0;;
64018;SDS011;66942;52.138;5.216;2023-04-24T07:36:01;15.7;;;14.1;;
64018;SDS011;66942;52.138;5.216;2023-04-24T07:37:37;16.2;;;14.5;;
64018;SDS011;66942;52.138;5.216;2023-04-24T07:40:50;15.5;;;13.8;;
64018;SDS011;66942;52.138;5.216;2023-04-24T07:42:28;16.8;;;13.3;;
64018;SDS011;66942;52.138;5.216;2023-04-24T07:44:04;15.7;;;13.2;;
64018;SDS011;66942;52.138;5.216;2023-04-24T07:47:16;17.7;;;13.9;;
64018;SDS011;66942;52.138;5.216;2023-04-24T07:48:52;14.2;;;12.2;;
64018;SDS011;66942;52.138;5.216;2023-04-24T07:50:28;18.7;;;13.1;;
64018;SDS011;66942;52.138;5.216;2023-04-24T07:53:42;20.11;;;11.5;;
64018;SDS011;66942;52.138;5.216;2023-04-24T07:55:19;19.41;;;11.4;;
64018;SDS011;66942;52.138;5.216;2023-04-24T07:56:56;16.7;;;10.3;;
64018;SDS011;66942;52.138;5.216;2023-04-24T07:58:32;20.5;;;9.21;;
64018;SDS011;66942;52.138;5.216;2023-04-24T08:01:45;18.41;;;9.6;;
64018;SDS011;66942;52.138;5.216;2023-04-24T08:03:21;20.0;;;8.31;;
64018;SDS011;66942;52.138;5.216;2023-04-24T08:04:57;21.2;;;9.0;;
64018;SDS011;66942;52.138;5.216;2023-04-24T08:08:10;20.2;;;8.2;;
64018;SDS011;66942;52.138;5.216;2023-04-24T08:09:46;17.91;;;7.7;;
64018;SDS011;66942;52.138;5.216;2023-04-24T08:11:22;21.9;;;7.3;;
64018;SDS011;66942;52.138;5.216;2023-04-24T08:14:35;16.7;;;7.1;;
64018;SDS011;66942;52.138;5.216;2023-04-24T08:16:11;16.61;;;7.1;;
64018;SDS011;66942;52.138;5.216;2023-04-24T08:17:47;19.7;;;6.7;;
64018;SDS011;66942;52.138;5.216;2023-04-24T08:19:24;19.7;;;7.0;;
64018;SDS011;66942;52.138;5.216;2023-04-24T08:22:36;17.11;;;6.5;;
64018;SDS011;66942;52.138;5.216;2023-04-24T08:24:12;20.8;;;6.5;;
64018;SDS011;66942;52.138;5.216;2023-04-24T08:25:48;21.3;;;6.3;;
64018;SDS011;66942;52.138;5.216;2023-04-24T08:29:01;16.7;;;5.6;;
64018;SDS011;66942;52.138;5.216;2023-04-24T08:30:38;18.11;;;5.9;;
64018;SDS011;66942;52.138;5.216;2023-04-24T08:32:15;13.5;;;5.2;;
64018;SDS011;66942;52.138;5.216;2023-04-24T08:35:27;15.7;;;4.91;;
64018;SDS011;66942;52.138;5.216;2023-04-24T08:37:03;17.61;;;4.7;;
64018;SDS011;66942;52.138;5.216;2023-04-24T08:38:39;15.2;;;4.7;;
64018;SDS011;66942;52.138;5.216;2023-04-24T08:40:15;12.3;;;4.1;;
64018;SDS011;66942;52.138;5.216;2023-04-24T08:43:29;13.2;;;4.2;;
64018;SDS011;66942;52.138;5.216;2023-04-24T08:45:09;9.6;;;3.5;;
64018;SDS011;66942;52.138;5.216;2023-04-24T08:46:47;11.6;;;4.1;;
64018;SDS011;66942;52.138;5.216;2023-04-24T08:50:02;12.0;;;4.1;;
64018;SDS011;66942;52.138;5.216;2023-04-24T08:51:38;10.6;;;4.1;;
64018;SDS011;66942;52.138;5.216;2023-04-24T08:53:16;11.9;;;3.7;;
64018;SDS011;66942;52.138;5.216;2023-04-24T08:56:30;12.5;;;3.9;;
64018;SDS011;66942;52.138;5.216;2023-04-24T08:58:10;11.3;;;3.8;;
64018;SDS011;66942;52.138;5.216;2023-04-24T08:59:46;12.7;;;3.9;;
64018;SDS011;66942;52.138;5.216;2023-04-24T09:01:22;13.3;;;4.2;;
64018;SDS011;66942;52.138;5.216;2023-04-24T09:04:40;16.3;;;4.8;;
64018;SDS011;66942;52.138;5.216;2023-04-24T09:06:18;13.6;;;4.41;;
64018;SDS011;66942;52.138;5.216;2023-04-24T09:07:57;12.2;;;4.5;;
64018;SDS011;66942;52.138;5.216;2023-04-24T09:09:37;10.4;;;4.41;;
64018;SDS011;66942;52.138;5.216;2023-04-24T09:12:52;10.21;;;3.8;;
64018;SDS011;66942;52.138;5.216;2023-04-24T09:14:29;15.6;;;4.61;;
64018;SDS011;66942;52.138;5.216;2023-04-24T09:16:06;12.7;;;4.61;;
64018;SDS011;66942;52.138;5.216;2023-04-24T09:19:19;10.8;;;4.2;;
64018;SDS011;66942;52.138;5.216;2023-04-24T09:20:57;12.0;;;4.0;;
64018;SDS011;66942;52.138;5.216;2023-04-24T09:22:34;11.4;;;4.1;;
64018;SDS011;66942;52.138;5.216;2023-04-24T09:25:53;11.2;;;3.9;;
64018;SDS011;66942;52.138;5.216;2023-04-24T09:27:31;11.7;;;4.5;;
64018;SDS011;66942;52.138;5.216;2023-04-24T09:29:08;10.1;;;3.7;;
64018;SDS011;66942;52.138;5.216;2023-04-24T09:30:54;13.3;;;4.2;;
64018;SDS011;66942;52.138;5.216;2023-04-24T09:32:38;12.9;;;4.0;;
64018;SDS011;66942;52.138;5.216;2023-04-24T09:35:58;9.4;;;3.8;;
64018;SDS011;66942;52.138;5.216;2023-04-24T09:37:35;11.8;;;4.61;;
64018;SDS011;66942;52.138;5.216;2023-04-24T09:39:13;9.4;;;3.4;;
64018;SDS011;66942;52.138;5.216;2023-04-24T09:42:28;10.3;;;4.2;;
64018;SDS011;66942;52.138;5.216;2023-04-24T09:44:10;7.2;;;3.2;;
64018;SDS011;66942;52.138;5.216;2023-04-24T09:45:48;6.0;;;2.7;;
64018;SDS011;66942;52.138;5.216;2023-04-24T09:47:24;10.1;;;3.7;;
64018;SDS011;66942;52.138;5.216;2023-04-24T09:50:45;7.8;;;3.2;;
64018;SDS011;66942;52.138;5.216;2023-04-24T09:52:22;7.8;;;2.9;;
64018;SDS011;66942;52.138;5.216;2023-04-24T09:53:58;7.5;;;3.3;;
64018;SDS011;66942;52.138;5.216;2023-04-24T09:55:35;5.6;;;2.5;;
64018;SDS011;66942;52.138;5.216;2023-04-24T09:58:51;5.0;;;2.5;;
64018;SDS011;66942;52.138;5.216;2023-04-24T10:00:30;5.6;;;2.4;;
64018;SDS011;66942;52.138;5.216;2023-04-24T10:02:15;4.8;;;2.6;;
64018;SDS011;66942;52.138;5.216;2023-04-24T10:05:29;7.0;;;2.6;;
64018;SDS011;66942;52.138;5.216;2023-04-24T10:07:07;7.9;;;2.7;;
64018;SDS011;66942;52.138;5.216;2023-04-24T10:08:43;6.8;;;2.7;;
64018;SDS011;66942;52.138;5.216;2023-04-24T10:10:20;8.0;;;3.1;;
64018;SDS011;66942;52.138;5.216;2023-04-24T10:13:35;8.6;;;2.9;;
64018;SDS011;66942;52.138;5.216;2023-04-24T10:15:12;8.71;;;2.6;;
64018;SDS011;66942;52.138;5.216;2023-04-24T10:16:49;8.71;;;2.9;;
64018;SDS011;66942;52.138;5.216;2023-04-24T10:20:06;8.0;;;2.31;;
64018;SDS011;66942;52.138;5.216;2023-04-24T10:21:43;5.3;;;2.21;;
64018;SDS011;66942;52.138;5.216;2023-04-24T10:23:20;5.5;;;1.7;;
64018;SDS011;66942;52.138;5.216;2023-04-24T10:24:57;3.2;;;1.0;;
64018;SDS011;66942;52.138;5.216;2023-04-24T10:28:11;1.6;;;1.0;;
64018;SDS011;66942;52.138;5.216;2023-04-24T10:29:48;1.7;;;0.9;;
64018;SDS011;66942;52.138;5.216;2023-04-24T10:31:30;2.21;;;1.0;;
64018;SDS011;66942;52.138;5.216;2023-04-24T10:34:44;2.7;;;1.0;;
64018;SDS011;66942;52.138;5.216;2023-04-24T10:36:21;3.3;;;1.11;;
64018;SDS011;66942;52.138;5.216;2023-04-24T10:37:59;3.7;;;1.3;;
64018;SDS011;66942;52.138;5.216;2023-04-24T10:39:41;3.1;;;1.2;;
64018;SDS011;66942;52.138;5.216;2023-04-24T10:42:54;4.5;;;1.4;;
64018;SDS011;66942;52.138;5.216;2023-04-24T10:44:35;4.61;;;1.5;;
64018;SDS011;66942;52.138;5.216;2023-04-24T10:46:16;4.8;;;1.5;;
64018;SDS011;66942;52.138;5.216;2023-04-24T10:47:57;6.6;;;1.3;;
64018;SDS011;66942;52.138;5.216;2023-04-24T10:51:12;6.6;;;1.6;;
64018;SDS011;66942;52.138;5.216;2023-04-24T10:52:48;4.1;;;1.3;;
64018;SDS011;66942;52.138;5.216;2023-04-24T10:54:25;5.9;;;2.0;;
64018;SDS011;66942;52.138;5.216;2023-04-24T10:58:00;3.8;;;1.2;;
64018;SDS011;66942;52.138;5.216;2023-04-24T10:59:38;4.5;;;1.7;;
64018;SDS011;66942;52.138;5.216;2023-04-24T11:01:30;4.1;;;1.5;;
64018;SDS011;66942;52.138;5.216;2023-04-24T11:03:22;4.5;;;2.1;;
64018;SDS011;66942;52.138;5.216;2023-04-24T11:05:02;3.7;;;1.5;;
64018;SDS011;66942;52.138;5.216;2023-04-24T11:08:21;4.7;;;1.7;;
64018;SDS011;66942;52.138;5.216;2023-04-24T11:10:00;6.7;;;1.9;;
64018;SDS011;66942;52.138;5.216;2023-04-24T11:11:36;6.4;;;2.0;;
64018;SDS011;66942;52.138;5.216;2023-04-24T11:13:15;4.1;;;1.6;;
64018;SDS011;66942;52.138;5.216;2023-04-24T11:16:39;7.5;;;1.5;;
64018;SDS011;66942;52.138;5.216;2023-04-24T11:18:36;4.3;;;1.6;;
64018;SDS011;66942;52.138;5.216;2023-04-24T11:20:16;3.8;;;1.4;;
64018;SDS011;66942;52.138;5.216;2023-04-24T11:21:54;7.2;;;1.6;;
64018;SDS011;66942;52.138;5.216;2023-04-24T11:23:35;3.9;;;1.5;;
64018;SDS011;66942;52.138;5.216;2023-04-24T11:26:47;5.11;;;1.7;;
64018;SDS011;66942;52.138;5.216;2023-04-24T11:28:23;3.2;;;1.5;;
64018;SDS011;66942;52.138;5.216;2023-04-24T11:30:00;5.3;;;1.5;;
64018;SDS011;66942;52.138;5.216;2023-04-24T11:33:16;3.4;;;1.3;;
64018;SDS011;66942;52.138;5.216;2023-04-24T11:34:57;3.9;;;1.4;;
64018;SDS011;66942;52.138;5.216;2023-04-24T11:36:34;2.6;;;1.0;;
64018;SDS011;66942;52.138;5.216;2023-04-24T11:38:11;3.0;;;0.9;;
64018;SDS011;66942;52.138;5.216;2023-04-24T11:41:28;2.0;;;0.7;;
64018;SDS011;66942;52.138;5.216;2023-04-24T11:43:05;2.1;;;0.6;;
64018;SDS011;66942;52.138;5.216;2023-04-24T11:44:42;3.3;;;0.9;;
64018;SDS011;66942;52.138;5.216;2023-04-24T11:47:56;2.4;;;0.8;;
64018;SDS011;66942;52.138;5.216;2023-04-24T11:49:33;4.2;;;0.9;;
64018;SDS011;66942;52.138;5.216;2023-04-24T11:51:12;4.2;;;0.9;;
64018;SDS011;66942;52.138;5.216;2023-04-24T11:52:49;2.9;;;1.0;;
64018;SDS011;66942;52.138;5.216;2023-04-24T11:56:02;3.1;;;1.0;;
64018;SDS011;66942;52.138;5.216;2023-04-24T11:57:39;4.3;;;1.11;;
64018;SDS011;66942;52.138;5.216;2023-04-24T11:59:17;4.2;;;1.4;;
64018;SDS011;66942;52.138;5.216;2023-04-24T12:02:32;3.7;;;1.3;;
64018;SDS011;66942;52.138;5.216;2023-04-24T12:04:08;4.7;;;1.5;;
64018;SDS011;66942;52.138;5.216;2023-04-24T12:05:44;3.6;;;1.4;;
64018;SDS011;66942;52.138;5.216;2023-04-24T12:08:59;4.3;;;1.6;;
64018;SDS011;66942;52.138;5.216;2023-04-24T12:10:35;5.7;;;2.1;;
64018;SDS011;66942;52.138;5.216;2023-04-24T12:12:11;5.8;;;1.5;;
64018;SDS011;66942;52.138;5.216;2023-04-24T12:13:48;4.61;;;1.6;;
64018;SDS011;66942;52.138;5.216;2023-04-24T12:17:01;4.41;;;1.7;;
64018;SDS011;66942;52.138;5.216;2023-04-24T12:18:42;3.7;;;1.8;;
64018;SDS011;66942;52.138;5.216;2023-04-24T12:20:23;9.1;;;2.5;;
64018;SDS011;66942;52.138;5.216;2023-04-24T12:22:01;6.5;;;2.1;;
64018;SDS011;66942;52.138;5.216;2023-04-24T12:25:18;7.5;;;2.31;;
64018;SDS011;66942;52.138;5.216;2023-04-24T12:26:56;6.6;;;2.21;;
64018;SDS011;66942;52.138;5.216;2023-04-24T12:28:35;7.3;;;2.4;;
64018;SDS011;66942;52.138;5.216;2023-04-24T12:31:51;5.8;;;2.21;;
64018;SDS011;66942;52.138;5.216;2023-04-24T12:33:27;4.7;;;2.1;;
64018;SDS011;66942;52.138;5.216;2023-04-24T12:35:09;6.7;;;2.21;;
64018;SDS011;66942;52.138;5.216;2023-04-24T12:36:45;7.8;;;2.5;;
64018;SDS011;66942;52.138;5.216;2023-04-24T12:40:02;7.4;;;2.5;;
64018;SDS011;66942;52.138;5.216;2023-04-24T12:41:48;5.8;;;2.4;;
64018;SDS011;66942;52.138;5.216;2023-04-24T12:43:27;8.0;;;2.7;;
64018;SDS011;66942;52.138;5.216;2023-04-24T12:45:04;8.0;;;2.8;;
64018;SDS011;66942;52.138;5.216;2023-04-24T12:48:18;5.9;;;2.4;;
64018;SDS011;66942;52.138;5.216;2023-04-24T12:49:54;9.71;;;3.0;;
64018;SDS011;66942;52.138;5.216;2023-04-24T12:51:30;7.7;;;3.0;;